Weather at Shepard Airport

Public forecast

Using degrees Fahrenheit for public forecast. Weather courtesy of forecast.io.

Closest aviation weather report (METAR) to Shepard Airport

Closest report is Syracuse Hancock International Airport, 9.6 nm (17.7 km) SSW. Retrieved 2020/12/03 17:54 UTC (58 minutes ago):

KSYR 031754Z 25013KT 10SM FEW032 BKN180 06/M04 A3005 RMK AO2 SLP177 T00611039 10061 20017 58014

Closest aviation forecast (TAF) to Shepard Airport

Closest forecast is Syracuse Hancock International Airport, 9.6 nm (17.7 km) SSW. Retrieved 2020/12/03 18:30 UTC (22 minutes ago):

TAF KSYR 031729Z 0318/0418 23013KT P6SM FEW035 SCT200 FM032300 22008KT P6SM SCT200